Terminal Aerodrome Forecast
Issued by NWS

Home | Current Version | Previous Version | Text Only | Print | Product List | Glossary On
Versions: 1 2 3 4 5 6 7 8 9 10 11 12 13 14 15 16 17 18
000
FTUS43 KILX 061700 AAA
TAFDEC
TAF AMD
KDEC 061746Z 0618/0718 18016G24KT P6SM BKN110
     FM070000 21012KT P6SM SCT250
     FM071400 23016G24KT P6SM SCT100=

USA.gov is the U.S. government's official web portal to all federal, state and local government web resources and services.